createdAt,value
2023-04-08T00:01:05.439Z,5.94
2023-04-08T00:03:37.305Z,6.31
2023-04-08T00:06:08.802Z,6.16
2023-04-08T00:08:40.261Z,6.25
2023-04-08T00:11:11.771Z,6.32
2023-04-08T00:13:43.090Z,6.40
2023-04-08T00:16:14.526Z,6.10
2023-04-08T00:18:45.892Z,6.00
2023-04-08T00:21:20.403Z,6.08
2023-04-08T00:23:51.754Z,6.34
2023-04-08T00:26:23.197Z,6.27
2023-04-08T00:28:54.899Z,6.34
2023-04-08T00:31:28.376Z,6.28
2023-04-08T00:34:00.001Z,5.98
2023-04-08T00:36:31.374Z,6.35
2023-04-08T00:39:04.255Z,6.33
2023-04-08T00:41:36.114Z,5.85
2023-04-08T00:44:07.773Z,6.31
2023-04-08T00:46:40.559Z,5.85
2023-04-08T00:49:12.618Z,6.25
2023-04-08T00:51:44.076Z,6.34
2023-04-08T00:54:15.455Z,6.26
2023-04-08T00:56:46.888Z,6.30
2023-04-08T00:59:18.757Z,6.20
2023-04-08T01:02:19.111Z,6.38
2023-04-08T01:05:26.261Z,6.45
2023-04-08T01:08:01.962Z,6.33
2023-04-08T01:10:35.601Z,6.43
2023-04-08T01:13:11.892Z,6.27
2023-04-08T01:15:45.408Z,6.21
2023-04-08T01:18:17.545Z,6.37
2023-04-08T01:20:50.577Z,6.48
2023-04-08T01:23:46.525Z,6.51
2023-04-08T01:26:22.701Z,5.96
2023-04-08T01:28:57.847Z,6.49
2023-04-08T01:31:30.625Z,6.42
2023-04-08T01:34:04.595Z,6.53
2023-04-08T01:36:38.434Z,6.48
2023-04-08T01:39:11.249Z,6.23
2023-04-08T01:41:43.343Z,6.43
2023-04-08T01:44:17.221Z,6.53
2023-04-08T01:46:49.727Z,6.39
2023-04-08T01:49:23.804Z,6.39
2023-04-08T01:51:58.843Z,6.56
2023-04-08T01:54:30.579Z,6.11
2023-04-08T01:57:08.814Z,6.23
2023-04-08T01:59:41.116Z,6.45
2023-04-08T02:02:13.521Z,6.43
2023-04-08T02:04:45.111Z,6.12
2023-04-08T02:07:17.737Z,6.55
2023-04-08T02:09:50.600Z,6.17
2023-04-08T02:12:22.968Z,6.39
2023-04-08T02:14:55.395Z,6.56
2023-04-08T02:17:36.074Z,6.65
2023-04-08T02:20:10.936Z,6.41
2023-04-08T02:23:03.295Z,6.82
2023-04-08T02:25:40.181Z,6.56
2023-04-08T02:28:12.314Z,6.72
2023-04-08T02:30:48.954Z,6.70
2023-04-08T02:33:22.279Z,6.60
2023-04-08T02:35:55.484Z,6.30
2023-04-08T02:38:29.742Z,6.70
2023-04-08T02:41:02.218Z,6.54
2023-04-08T02:43:33.672Z,6.40
2023-04-08T02:46:05.601Z,6.09
2023-04-08T02:48:38.043Z,6.13
2023-04-08T02:51:09.431Z,6.06
2023-04-08T02:53:41.050Z,6.19
2023-04-08T02:56:12.537Z,6.14
2023-04-08T02:58:43.984Z,6.64
2023-04-08T03:01:17.679Z,6.73
2023-04-08T03:03:49.213Z,6.71
2023-04-08T03:06:20.775Z,6.71
2023-04-08T03:08:52.291Z,6.71
2023-04-08T03:11:23.885Z,6.57
2023-04-08T03:13:56.018Z,6.51
2023-04-08T03:16:27.812Z,6.80
2023-04-08T03:18:59.178Z,6.78
2023-04-08T03:21:31.776Z,6.74
2023-04-08T03:24:03.343Z,6.72
2023-04-08T03:26:34.758Z,6.73
2023-04-08T03:29:06.882Z,6.18
2023-04-08T03:31:38.552Z,6.75
2023-04-08T03:34:10.027Z,6.31
2023-04-08T03:36:41.382Z,6.51
2023-04-08T03:39:12.810Z,6.75
2023-04-08T03:41:44.180Z,6.82
2023-04-08T03:44:15.562Z,6.86
2023-04-08T03:46:46.910Z,6.42
2023-04-08T03:49:18.388Z,6.77
2023-04-08T03:51:50.351Z,6.68
2023-04-08T03:54:22.007Z,6.65
2023-04-08T03:56:53.340Z,6.57
2023-04-08T03:59:25.045Z,6.06
2023-04-08T04:01:56.504Z,6.49
2023-04-08T04:04:28.150Z,6.43
2023-04-08T04:06:59.687Z,6.43
2023-04-08T04:09:31.049Z,6.39
2023-04-08T04:12:02.724Z,6.37
2023-04-08T04:14:34.186Z,6.39
2023-04-08T04:17:05.503Z,6.35
2023-04-08T04:19:36.905Z,5.93
2023-04-08T04:22:08.394Z,6.39
2023-04-08T04:24:40.302Z,6.39
2023-04-08T04:27:11.978Z,6.31
2023-04-08T04:29:44.302Z,6.04
2023-04-08T04:32:15.994Z,6.26
2023-04-08T04:34:47.465Z,6.35
2023-04-08T04:37:19.203Z,6.00
2023-04-08T04:39:50.508Z,6.38
2023-04-08T04:42:21.865Z,6.37
2023-04-08T04:44:54.416Z,6.09
2023-04-08T04:47:26.256Z,6.34
2023-04-08T04:49:57.630Z,5.96
2023-04-08T04:52:29.290Z,6.28
2023-04-08T04:55:00.964Z,6.28
2023-04-08T04:57:32.348Z,6.21
2023-04-08T05:00:05.573Z,6.25
2023-04-08T05:02:37.374Z,6.23
2023-04-08T05:05:09.266Z,6.25
2023-04-08T05:07:40.905Z,6.19
2023-04-08T05:10:12.323Z,6.17
2023-04-08T05:12:43.657Z,6.15
2023-04-08T05:15:15.742Z,5.86
2023-04-08T05:17:48.275Z,6.18
2023-04-08T05:20:19.662Z,5.96
2023-04-08T05:22:51.104Z,6.21
2023-04-08T05:25:22.459Z,6.21
2023-04-08T05:27:53.871Z,5.82
2023-04-08T05:30:25.406Z,6.20
2023-04-08T05:32:59.906Z,6.15
2023-04-08T05:35:31.872Z,6.02
2023-04-08T05:38:03.207Z,6.15
2023-04-08T05:40:34.554Z,6.16
2023-04-08T05:43:06.261Z,6.07
2023-04-08T05:45:37.691Z,6.03
2023-04-08T05:48:09.049Z,6.03
2023-04-08T05:50:40.760Z,6.12
2023-04-08T05:53:12.084Z,6.16
2023-04-08T05:55:43.547Z,5.88
2023-04-08T05:58:14.989Z,6.18
2023-04-08T06:00:46.408Z,6.15
2023-04-08T06:03:20.536Z,6.00
2023-04-08T06:05:52.300Z,6.07
2023-04-08T06:08:24.678Z,6.03
2023-04-08T06:10:56.059Z,6.07
2023-04-08T06:13:27.401Z,6.07
2023-04-08T06:15:59.192Z,6.20
2023-04-08T06:18:30.866Z,6.08
2023-04-08T06:21:02.706Z,6.31
2023-04-08T06:23:34.113Z,6.34
2023-04-08T06:26:05.616Z,6.33
2023-04-08T06:28:36.978Z,6.28
2023-04-08T06:31:08.725Z,6.56
2023-04-08T06:33:40.263Z,6.13
2023-04-08T06:36:13.260Z,6.45
2023-04-08T06:38:44.979Z,6.53
2023-04-08T06:41:16.463Z,6.43
2023-04-08T06:43:47.783Z,6.32
2023-04-08T06:46:19.769Z,5.93
2023-04-08T06:48:51.722Z,6.42
2023-04-08T06:51:23.521Z,6.51
2023-04-08T06:53:55.224Z,6.40
2023-04-08T06:56:26.552Z,6.52
2023-04-08T06:58:57.998Z,6.57
2023-04-08T07:01:29.347Z,6.49
2023-04-08T07:04:02.434Z,6.49
2023-04-08T07:06:33.938Z,6.38
2023-04-08T07:09:05.502Z,6.53
2023-04-08T07:11:36.846Z,6.64
2023-04-08T07:14:08.297Z,6.59
2023-04-08T07:16:39.975Z,6.65
2023-04-08T07:19:12.438Z,6.77
2023-04-08T07:21:43.832Z,6.69
2023-04-08T07:24:15.901Z,6.86
2023-04-08T07:26:47.739Z,6.75
2023-04-08T07:29:19.114Z,6.83
2023-04-08T07:31:51.805Z,6.88
2023-04-08T07:34:23.249Z,6.72
2023-04-08T07:36:54.709Z,6.97
2023-04-08T07:39:26.227Z,7.00
2023-04-08T07:41:57.657Z,7.20
2023-04-08T07:44:29.002Z,7.20
2023-04-08T07:47:00.568Z,7.15
2023-04-08T07:49:32.020Z,7.20
2023-04-08T07:52:03.328Z,7.19
2023-04-08T07:54:34.664Z,7.27
2023-04-08T07:57:06.159Z,7.32
2023-04-08T07:59:37.710Z,7.53
2023-04-08T08:02:09.297Z,7.25
2023-04-08T08:04:41.307Z,7.49
2023-04-08T08:07:12.893Z,7.63
2023-04-08T08:09:44.254Z,7.25
2023-04-08T08:12:16.247Z,7.19
2023-04-08T08:14:47.587Z,7.62
2023-04-08T08:17:19.349Z,7.79
2023-04-08T08:19:51.046Z,7.51
2023-04-08T08:22:22.815Z,7.83
2023-04-08T08:24:57.742Z,7.86
2023-04-08T08:27:29.243Z,8.01
2023-04-08T08:30:00.832Z,8.04
2023-04-08T08:32:32.734Z,7.45
2023-04-08T08:35:04.408Z,7.86
2023-04-08T08:37:35.981Z,7.88
2023-04-08T08:40:08.887Z,7.90
2023-04-08T08:42:40.264Z,7.89
2023-04-08T08:45:11.722Z,8.05
2023-04-08T08:47:43.191Z,8.24
2023-04-08T08:50:14.628Z,8.34
2023-04-08T08:52:51.145Z,8.34
2023-04-08T08:55:41.402Z,7.98
2023-04-08T08:58:14.000Z,8.14
2023-04-08T09:00:45.472Z,7.84
2023-04-08T09:03:19.373Z,8.11
2023-04-08T09:05:53.640Z,7.88
2023-04-08T09:08:29.232Z,7.88
2023-04-08T09:11:21.786Z,7.67
2023-04-08T09:13:53.247Z,8.08
2023-04-08T09:16:24.594Z,8.16
2023-04-08T09:19:09.105Z,8.24
2023-04-08T09:21:41.447Z,8.17
2023-04-08T09:24:28.956Z,8.06
2023-04-08T09:27:01.096Z,8.10
2023-04-08T09:29:35.804Z,7.73
2023-04-08T09:32:08.157Z,8.26
2023-04-08T09:34:39.969Z,8.29
2023-04-08T09:37:11.919Z,8.01
2023-04-08T09:39:43.323Z,7.61
2023-04-08T09:42:16.011Z,8.10
2023-04-08T09:44:48.191Z,8.01
2023-04-08T09:47:25.866Z,7.81
2023-04-08T09:50:04.057Z,7.86
2023-04-08T09:52:47.045Z,7.67
2023-04-08T09:55:22.490Z,7.75
2023-04-08T09:58:04.478Z,7.68
2023-04-08T10:00:46.259Z,8.02
2023-04-08T10:03:33.623Z,8.30
2023-04-08T10:06:08.494Z,8.11
2023-04-08T10:08:40.342Z,8.04
2023-04-08T10:11:17.004Z,8.15
2023-04-08T10:13:49.264Z,8.30
2023-04-08T10:16:27.478Z,8.51
2023-04-08T10:18:59.755Z,8.30
2023-04-08T10:21:38.686Z,8.52
2023-04-08T10:24:11.650Z,8.36
2023-04-08T10:26:44.678Z,8.63
2023-04-08T10:29:21.285Z,8.59
2023-04-08T10:31:53.168Z,7.95
2023-04-08T10:34:28.107Z,8.33
2023-04-08T10:40:18.369Z,7.38
2023-04-08T10:42:59.820Z,8.31
2023-04-08T10:45:31.172Z,8.53
2023-04-08T10:48:31.643Z,8.63
2023-04-08T10:51:04.951Z,8.46
2023-04-08T10:53:39.707Z,8.44
2023-04-08T10:56:18.152Z,8.57
2023-04-08T10:58:51.915Z,8.64
2023-04-08T11:01:23.686Z,8.68
2023-04-08T11:03:55.600Z,8.61
2023-04-08T11:06:27.803Z,8.93
2023-04-08T11:09:04.138Z,9.04
2023-04-08T11:11:36.009Z,9.13
2023-04-08T11:14:07.547Z,9.15
2023-04-08T11:16:39.961Z,9.24
2023-04-08T11:19:13.730Z,9.13
2023-04-08T11:21:45.586Z,9.17
2023-04-08T11:24:17.948Z,9.22
2023-04-08T11:26:49.465Z,9.36
2023-04-08T11:29:21.369Z,9.20
2023-04-08T11:31:52.774Z,9.23
2023-04-08T11:34:25.530Z,9.55
2023-04-08T11:36:58.478Z,9.46
2023-04-08T11:39:29.871Z,9.38
2023-04-08T11:42:01.314Z,9.38
2023-04-08T11:44:33.216Z,9.17
2023-04-08T11:47:04.703Z,9.33
2023-04-08T11:49:46.601Z,8.88
2023-04-08T11:52:17.983Z,9.29
2023-04-08T11:54:49.339Z,9.39
2023-04-08T11:57:30.145Z,9.00
2023-04-08T12:00:01.809Z,9.49
2023-04-08T12:02:33.418Z,9.51
2023-04-08T12:05:05.377Z,9.22
2023-04-08T12:07:37.554Z,9.28
2023-04-08T12:10:12.806Z,9.11
2023-04-08T12:12:44.098Z,9.54
2023-04-08T12:15:15.769Z,9.79
2023-04-08T12:17:47.204Z,9.98
2023-04-08T12:20:18.791Z,10.21
2023-04-08T12:22:50.291Z,10.47
2023-04-08T12:25:21.723Z,10.34
2023-04-08T12:27:53.291Z,10.54
2023-04-08T12:30:24.798Z,10.54
2023-04-08T12:32:57.768Z,10.48
2023-04-08T12:35:29.308Z,10.33
2023-04-08T12:38:01.072Z,10.16
2023-04-08T12:40:32.420Z,10.11
2023-04-08T12:43:03.804Z,10.03
2023-04-08T12:45:35.283Z,10.18
2023-04-08T12:48:06.735Z,10.29
2023-04-08T12:50:38.137Z,9.86
2023-04-08T12:53:10.975Z,10.25
2023-04-08T12:55:44.760Z,9.99
2023-04-08T12:58:16.890Z,10.32
2023-04-08T13:00:49.645Z,10.18
2023-04-08T13:03:21.452Z,10.36
2023-04-08T13:05:52.859Z,10.40
2023-04-08T13:08:24.865Z,10.08
2023-04-08T13:10:56.386Z,10.05
2023-04-08T13:13:27.837Z,10.23
2023-04-08T13:15:59.463Z,10.25
2023-04-08T13:18:31.049Z,9.91
2023-04-08T13:21:02.491Z,10.21
2023-04-08T13:23:34.103Z,10.27
2023-04-08T13:26:06.590Z,10.28
2023-04-08T13:28:49.725Z,10.29
2023-04-08T13:31:27.745Z,10.26
2023-04-08T13:33:59.074Z,10.03
2023-04-08T13:36:31.420Z,9.88
2023-04-08T13:39:03.045Z,9.46
2023-04-08T13:41:34.961Z,9.83
2023-04-08T13:44:07.249Z,9.77
2023-04-08T13:46:39.779Z,9.81
2023-04-08T13:49:11.159Z,9.90
2023-04-08T13:51:42.551Z,9.78
2023-04-08T13:54:13.971Z,9.63
2023-04-08T13:56:45.366Z,9.61
2023-04-08T13:59:16.857Z,9.64
2023-04-08T14:01:53.748Z,9.54
2023-04-08T14:04:25.472Z,9.47
2023-04-08T14:06:58.095Z,9.59
2023-04-08T14:09:29.814Z,9.24
2023-04-08T14:12:02.463Z,9.36
2023-04-08T14:14:33.934Z,9.94
2023-04-08T14:17:05.927Z,9.88
2023-04-08T14:19:37.668Z,10.05
2023-04-08T14:22:09.031Z,10.01
2023-04-08T14:24:42.376Z,9.94
2023-04-08T14:27:13.672Z,9.87
2023-04-08T14:29:45.020Z,9.68
2023-04-08T14:32:16.776Z,9.48
2023-04-08T14:34:48.883Z,9.64
2023-04-08T14:37:20.533Z,9.27
2023-04-08T14:39:51.893Z,9.76
2023-04-08T14:42:23.560Z,9.61
2023-04-08T14:44:55.283Z,9.59
2023-04-08T14:47:26.984Z,9.66
2023-04-08T14:49:58.328Z,9.52
2023-04-08T14:52:29.800Z,9.56
2023-04-08T14:55:01.314Z,9.42
2023-04-08T14:57:32.896Z,9.35
2023-04-08T15:00:05.255Z,9.18
2023-04-08T15:02:36.737Z,9.40
2023-04-08T15:05:08.610Z,9.36
2023-04-08T15:07:40.199Z,9.33
2023-04-08T15:10:11.732Z,9.32
2023-04-08T15:12:43.251Z,9.30
2023-04-08T15:15:14.789Z,9.15
2023-04-08T15:17:46.638Z,9.42
2023-04-08T15:20:21.211Z,9.52
2023-04-08T15:22:52.932Z,9.45
2023-04-08T15:25:24.625Z,9.52
2023-04-08T15:27:56.569Z,9.10
2023-04-08T15:30:28.456Z,9.05
2023-04-08T15:32:59.769Z,9.48
2023-04-08T15:35:31.482Z,9.55
2023-04-08T15:38:04.051Z,9.34
2023-04-08T15:40:35.499Z,9.41
2023-04-08T15:43:09.992Z,9.22
2023-04-08T15:45:46.764Z,9.27
2023-04-08T15:48:18.827Z,9.01
2023-04-08T15:50:50.272Z,8.95
2023-04-08T15:53:21.739Z,9.23
2023-04-08T15:55:53.106Z,8.86
2023-04-08T15:58:24.461Z,8.62
2023-04-08T16:00:57.596Z,8.99
2023-04-08T16:03:29.086Z,8.96
2023-04-08T16:06:00.976Z,8.92
2023-04-08T16:08:33.877Z,8.68
2023-04-08T16:11:06.526Z,8.87
2023-04-08T16:13:40.544Z,8.91
2023-04-08T16:16:12.409Z,8.44
2023-04-08T16:18:46.115Z,8.82
2023-04-08T16:21:19.033Z,8.84
2023-04-08T16:23:50.629Z,8.59
2023-04-08T16:26:24.038Z,8.78
2023-04-08T16:28:55.478Z,8.67
2023-04-08T16:31:27.228Z,8.61
2023-04-08T16:33:59.047Z,8.59
2023-04-08T16:36:30.619Z,8.63
2023-04-08T16:39:02.551Z,8.49
2023-04-08T16:41:34.283Z,8.52
2023-04-08T16:44:06.218Z,8.55
2023-04-08T16:46:39.829Z,8.46
2023-04-08T16:49:14.071Z,8.54
2023-04-08T16:51:46.982Z,8.62
2023-04-08T16:54:18.472Z,8.45
2023-04-08T16:56:50.729Z,8.16
2023-04-08T16:59:22.335Z,8.55
2023-04-08T17:01:53.875Z,8.39
2023-04-08T17:04:25.262Z,8.41
2023-04-08T17:06:57.204Z,8.38
2023-04-08T17:09:29.329Z,8.36
2023-04-08T17:12:01.263Z,8.28
2023-04-08T17:14:33.739Z,8.03
2023-04-08T17:17:05.575Z,8.23
2023-04-08T17:19:38.202Z,7.88
2023-04-08T17:22:09.626Z,8.26
2023-04-08T17:24:41.080Z,8.21
2023-04-08T17:27:12.485Z,8.24
2023-04-08T17:29:43.882Z,8.29
2023-04-08T17:32:15.448Z,8.22
2023-04-08T17:34:47.258Z,8.12
2023-04-08T17:37:19.060Z,7.86
2023-04-08T17:39:51.555Z,7.80
2023-04-08T17:42:23.604Z,7.94
2023-04-08T17:44:56.076Z,7.97
2023-04-08T17:47:27.453Z,8.02
2023-04-08T17:49:59.803Z,7.87
2023-04-08T17:52:31.237Z,7.92
2023-04-08T17:55:02.567Z,7.94
2023-04-08T17:57:39.174Z,7.91
2023-04-08T18:00:14.544Z,7.88
2023-04-08T18:02:47.705Z,7.74
2023-04-08T18:05:21.837Z,7.84
2023-04-08T18:07:53.224Z,7.41
2023-04-08T18:10:24.762Z,7.43
2023-04-08T18:13:10.329Z,7.66
2023-04-08T18:15:43.007Z,7.77
2023-04-08T18:18:19.405Z,7.66
2023-04-08T18:20:51.283Z,7.58
2023-04-08T18:23:22.732Z,7.57
2023-04-08T18:25:57.273Z,7.63
2023-04-08T18:28:28.963Z,7.83
2023-04-08T18:31:00.609Z,7.78
2023-04-08T18:33:33.883Z,7.85
2023-04-08T18:36:11.549Z,7.85
2023-04-08T18:38:44.623Z,7.78
2023-04-08T18:41:17.784Z,7.72
2023-04-08T18:43:49.619Z,7.86
2023-04-08T18:46:21.624Z,7.78
2023-04-08T18:48:53.243Z,7.92
2023-04-08T18:51:24.931Z,7.98
2023-04-08T18:53:56.938Z,8.00
2023-04-08T18:56:28.826Z,8.08
2023-04-08T18:59:00.236Z,7.95
2023-04-08T19:01:33.196Z,8.04
2023-04-08T19:04:04.762Z,8.12
2023-04-08T19:06:37.677Z,7.95
2023-04-08T19:09:09.084Z,8.02
2023-04-08T19:11:41.060Z,7.99
2023-04-08T19:14:13.477Z,8.13
2023-04-08T19:16:45.129Z,8.06
2023-04-08T19:19:16.546Z,8.20
2023-04-08T19:21:48.783Z,8.12
2023-04-08T19:24:20.899Z,7.73
2023-04-08T19:26:53.034Z,8.27
2023-04-08T19:29:24.613Z,7.81
2023-04-08T19:31:57.385Z,8.25
2023-04-08T19:34:29.087Z,7.87
2023-04-08T19:37:00.506Z,8.11
2023-04-08T19:39:32.073Z,8.04
2023-04-08T19:42:03.682Z,8.15
2023-04-08T19:44:35.102Z,8.15
2023-04-08T19:47:06.721Z,8.23
2023-04-08T19:49:38.841Z,8.27
2023-04-08T19:52:10.457Z,8.22
2023-04-08T19:54:43.220Z,8.17
2023-04-08T19:57:14.861Z,8.13
2023-04-08T19:59:48.817Z,8.23
2023-04-08T20:02:21.008Z,8.10
2023-04-08T20:04:52.649Z,8.25
2023-04-08T20:07:24.074Z,8.27
2023-04-08T20:09:55.657Z,8.01
2023-04-08T20:12:27.138Z,8.17
2023-04-08T20:14:58.843Z,8.15
2023-04-08T20:17:30.465Z,8.13
2023-04-08T20:20:03.246Z,7.70
2023-04-08T20:22:34.623Z,8.06
2023-04-08T20:25:06.222Z,8.02
2023-04-08T20:27:37.670Z,7.90
2023-04-08T20:30:10.293Z,7.86
2023-04-08T20:32:41.741Z,8.03
2023-04-08T20:35:13.455Z,8.10
2023-04-08T20:37:44.890Z,8.07
2023-04-08T20:40:18.193Z,8.05
2023-04-08T20:42:49.902Z,8.09
2023-04-08T20:45:21.582Z,8.06
2023-04-08T20:47:54.139Z,8.06
2023-04-08T20:50:28.374Z,7.98
2023-04-08T20:53:00.154Z,7.80
2023-04-08T20:55:31.530Z,8.08
2023-04-08T20:58:05.836Z,8.02
2023-04-08T21:00:37.585Z,8.05
2023-04-08T21:03:09.300Z,7.93
2023-04-08T21:05:40.885Z,7.96
2023-04-08T21:08:12.458Z,7.94
2023-04-08T21:10:44.042Z,7.89
2023-04-08T21:13:15.800Z,7.76
2023-04-08T21:15:47.183Z,7.96
2023-04-08T21:18:18.592Z,7.93
2023-04-08T21:20:50.484Z,7.98
2023-04-08T21:23:22.536Z,7.93
2023-04-08T21:25:54.075Z,7.98
2023-04-08T21:28:25.855Z,7.97
2023-04-08T21:31:07.696Z,8.01
2023-04-08T21:33:40.206Z,8.04
2023-04-08T21:36:11.556Z,7.98
2023-04-08T21:38:43.134Z,8.05
2023-04-08T21:41:14.648Z,7.93
2023-04-08T21:43:46.796Z,7.94
2023-04-08T21:46:18.528Z,8.06
2023-04-08T21:48:50.266Z,7.95
2023-04-08T21:51:21.950Z,8.13
2023-04-08T21:53:53.718Z,7.99
2023-04-08T21:56:25.774Z,8.10
2023-04-08T21:58:57.236Z,8.07
2023-04-08T22:01:28.920Z,8.14
2023-04-08T22:04:00.462Z,8.09
2023-04-08T22:06:33.034Z,8.02
2023-04-08T22:09:04.580Z,8.13
2023-04-08T22:11:36.054Z,8.05
2023-04-08T22:14:07.649Z,8.13
2023-04-08T22:16:39.705Z,8.24
2023-04-08T22:19:11.196Z,8.13
2023-04-08T22:21:42.559Z,8.08
2023-04-08T22:24:13.965Z,8.22
2023-04-08T22:26:45.321Z,8.14
2023-04-08T22:29:17.910Z,8.16
2023-04-08T22:31:49.294Z,8.08
2023-04-08T22:34:20.797Z,8.22
2023-04-08T22:36:52.106Z,8.21
2023-04-08T22:39:26.050Z,8.28
2023-04-08T22:41:57.736Z,7.87
2023-04-08T22:44:29.427Z,8.15
2023-04-08T22:47:01.227Z,8.19
2023-04-08T22:49:32.940Z,7.91
2023-04-08T22:52:04.337Z,7.95
2023-04-08T22:54:35.939Z,8.23
2023-04-08T22:57:07.342Z,8.28
2023-04-08T22:59:39.094Z,8.33
2023-04-08T23:02:10.766Z,8.39
2023-04-08T23:04:42.140Z,8.40
2023-04-08T23:07:13.415Z,8.39
2023-04-08T23:09:44.728Z,8.30
2023-04-08T23:12:16.146Z,8.28
2023-04-08T23:14:47.845Z,8.12
2023-04-08T23:17:19.210Z,8.40
2023-04-08T23:19:50.604Z,8.28
2023-04-08T23:22:21.979Z,8.40
2023-04-08T23:24:53.580Z,8.42
2023-04-08T23:27:25.065Z,8.24
2023-04-08T23:29:56.466Z,8.36
2023-04-08T23:32:27.820Z,8.35
2023-04-08T23:35:00.805Z,8.47
2023-04-08T23:37:32.180Z,7.88
2023-04-08T23:40:03.779Z,8.41
2023-04-08T23:42:35.501Z,8.35
2023-04-08T23:45:07.570Z,8.42
2023-04-08T23:47:39.239Z,8.46
2023-04-08T23:50:10.812Z,8.44
2023-04-08T23:52:42.426Z,8.46
2023-04-08T23:55:13.888Z,8.47
2023-04-08T23:57:45.361Z,8.02
